sensor_id;sensor_type;location;lat;lon;timestamp;P1;durP1;ratioP1;P2;durP2;ratioP2
53273;SDS011;39163;52.696;6.758;2022-08-19T07:55:54;10.38;;;9.35;;
53273;SDS011;39163;52.696;6.758;2022-08-19T08:04:57;15.98;;;11.13;;
53273;SDS011;39163;52.696;6.758;2022-08-19T08:37:02;9.68;;;8.68;;
53273;SDS011;39163;52.696;6.758;2022-08-19T08:40:05;10.07;;;7.85;;
53273;SDS011;39163;52.696;6.758;2022-08-19T08:43:37;9.30;;;8.35;;
53273;SDS011;39163;52.696;6.758;2022-08-19T10:45:26;6.45;;;4.57;;
53273;SDS011;39163;52.696;6.758;2022-08-19T12:06:03;6.47;;;4.25;;
53273;SDS011;39163;52.696;6.758;2022-08-19T12:41:02;4.15;;;3.75;;
53273;SDS011;39163;52.696;6.758;2022-08-19T12:51:57;6.25;;;4.03;;
53273;SDS011;39163;52.696;6.758;2022-08-19T13:00:19;6.85;;;4.30;;
53273;SDS011;39163;52.696;6.758;2022-08-19T13:03:45;7.57;;;4.38;;
53273;SDS011;39163;52.696;6.758;2022-08-19T13:06:36;7.93;;;4.47;;
53273;SDS011;39163;52.696;6.758;2022-08-19T13:09:03;6.38;;;4.05;;
53273;SDS011;39163;52.696;6.758;2022-08-19T13:11:50;3.72;;;3.40;;
53273;SDS011;39163;52.696;6.758;2022-08-19T13:21:53;8.38;;;5.30;;
53273;SDS011;39163;52.696;6.758;2022-08-19T13:25:20;7.70;;;5.50;;
53273;SDS011;39163;52.696;6.758;2022-08-19T13:28:09;6.68;;;5.28;;
53273;SDS011;39163;52.696;6.758;2022-08-19T13:31:56;5.72;;;4.55;;
53273;SDS011;39163;52.696;6.758;2022-08-19T13:47:38;8.05;;;7.22;;
53273;SDS011;39163;52.696;6.758;2022-08-19T14:55:44;5.60;;;3.95;;
53273;SDS011;39163;52.696;6.758;2022-08-19T15:05:31;9.10;;;5.20;;
53273;SDS011;39163;52.696;6.758;2022-08-19T15:08:19;7.07;;;3.95;;
53273;SDS011;39163;52.696;6.758;2022-08-19T15:17:16;4.78;;;3.60;;
53273;SDS011;39163;52.696;6.758;2022-08-19T15:20:18;8.55;;;5.57;;
53273;SDS011;39163;52.696;6.758;2022-08-19T15:22:59;10.30;;;6.15;;
53273;SDS011;39163;52.696;6.758;2022-08-19T15:28:39;12.88;;;9.38;;
53273;SDS011;39163;52.696;6.758;2022-08-19T15:34:26;16.33;;;11.02;;
53273;SDS011;39163;52.696;6.758;2022-08-19T16:35:43;17.10;;;10.75;;
53273;SDS011;39163;52.696;6.758;2022-08-19T16:56:01;15.82;;;10.95;;
53273;SDS011;39163;52.696;6.758;2022-08-19T16:58:38;13.25;;;10.35;;
53273;SDS011;39163;52.696;6.758;2022-08-19T17:01:06;13.90;;;11.93;;
53273;SDS011;39163;52.696;6.758;2022-08-19T17:03:33;14.57;;;11.18;;
53273;SDS011;39163;52.696;6.758;2022-08-19T17:06:23;15.40;;;9.85;;
53273;SDS011;39163;52.696;6.758;2022-08-19T17:08:54;14.63;;;10.18;;
53273;SDS011;39163;52.696;6.758;2022-08-19T17:11:23;15.07;;;7.38;;
53273;SDS011;39163;52.696;6.758;2022-08-19T17:13:50;12.35;;;8.00;;
53273;SDS011;39163;52.696;6.758;2022-08-19T17:16:22;11.77;;;7.53;;
53273;SDS011;39163;52.696;6.758;2022-08-19T17:19:03;11.35;;;6.25;;
53273;SDS011;39163;52.696;6.758;2022-08-19T17:21:58;9.93;;;6.45;;
53273;SDS011;39163;52.696;6.758;2022-08-19T17:24:29;13.65;;;7.50;;
53273;SDS011;39163;52.696;6.758;2022-08-19T17:27:06;12.10;;;6.53;;
53273;SDS011;39163;52.696;6.758;2022-08-19T17:29:34;9.57;;;6.18;;
53273;SDS011;39163;52.696;6.758;2022-08-19T17:32:00;5.38;;;3.90;;
53273;SDS011;39163;52.696;6.758;2022-08-19T17:34:34;6.05;;;3.50;;
53273;SDS011;39163;52.696;6.758;2022-08-19T17:37:00;7.93;;;2.95;;
53273;SDS011;39163;52.696;6.758;2022-08-19T17:39:26;9.00;;;2.35;;
53273;SDS011;39163;52.696;6.758;2022-08-19T17:41:51;4.90;;;2.20;;
53273;SDS011;39163;52.696;6.758;2022-08-19T17:44:17;3.13;;;1.92;;
53273;SDS011;39163;52.696;6.758;2022-08-19T17:46:43;5.38;;;2.50;;
53273;SDS011;39163;52.696;6.758;2022-08-19T17:49:10;3.35;;;2.42;;
53273;SDS011;39163;52.696;6.758;2022-08-19T17:51:45;5.90;;;2.35;;
53273;SDS011;39163;52.696;6.758;2022-08-19T17:54:14;4.32;;;2.88;;
53273;SDS011;39163;52.696;6.758;2022-08-19T17:56:42;5.47;;;2.80;;
53273;SDS011;39163;52.696;6.758;2022-08-19T17:59:10;4.55;;;3.00;;
53273;SDS011;39163;52.696;6.758;2022-08-19T18:01:37;5.03;;;2.90;;
53273;SDS011;39163;52.696;6.758;2022-08-19T18:04:02;4.72;;;2.63;;
53273;SDS011;39163;52.696;6.758;2022-08-19T18:06:30;4.78;;;3.13;;
53273;SDS011;39163;52.696;6.758;2022-08-19T18:08:56;3.03;;;2.72;;
53273;SDS011;39163;52.696;6.758;2022-08-19T18:11:21;8.63;;;3.63;;
53273;SDS011;39163;52.696;6.758;2022-08-19T18:13:47;6.13;;;3.55;;
53273;SDS011;39163;52.696;6.758;2022-08-19T18:16:16;2.95;;;2.65;;
53273;SDS011;39163;52.696;6.758;2022-08-19T18:18:48;4.40;;;2.65;;
53273;SDS011;39163;52.696;6.758;2022-08-19T18:21:14;6.93;;;2.78;;
53273;SDS011;39163;52.696;6.758;2022-08-19T18:23:40;8.40;;;3.60;;
53273;SDS011;39163;52.696;6.758;2022-08-19T18:26:06;5.80;;;3.67;;
53273;SDS011;39163;52.696;6.758;2022-08-19T18:28:32;9.48;;;4.53;;
53273;SDS011;39163;52.696;6.758;2022-08-19T18:30:58;6.90;;;3.70;;
53273;SDS011;39163;52.696;6.758;2022-08-19T18:33:24;7.75;;;4.40;;
53273;SDS011;39163;52.696;6.758;2022-08-19T18:35:50;6.22;;;3.95;;
53273;SDS011;39163;52.696;6.758;2022-08-19T18:38:17;6.25;;;4.47;;
53273;SDS011;39163;52.696;6.758;2022-08-19T18:41:03;9.68;;;5.75;;
53273;SDS011;39163;52.696;6.758;2022-08-19T18:43:48;10.80;;;6.15;;
53273;SDS011;39163;52.696;6.758;2022-08-19T18:46:33;11.43;;;6.88;;
53273;SDS011;39163;52.696;6.758;2022-08-19T18:49:22;10.57;;;6.60;;
53273;SDS011;39163;52.696;6.758;2022-08-19T18:51:49;12.80;;;7.32;;
53273;SDS011;39163;52.696;6.758;2022-08-19T18:54:16;9.63;;;7.38;;
53273;SDS011;39163;52.696;6.758;2022-08-19T18:56:43;12.07;;;7.00;;
53273;SDS011;39163;52.696;6.758;2022-08-19T18:59:11;14.15;;;7.93;;
53273;SDS011;39163;52.696;6.758;2022-08-19T19:01:39;13.93;;;8.32;;
53273;SDS011;39163;52.696;6.758;2022-08-19T19:04:12;13.52;;;8.93;;
53273;SDS011;39163;52.696;6.758;2022-08-19T19:06:39;11.10;;;9.20;;
53273;SDS011;39163;52.696;6.758;2022-08-19T19:09:12;15.50;;;10.45;;
53273;SDS011;39163;52.696;6.758;2022-08-19T19:11:43;16.45;;;9.52;;
53273;SDS011;39163;52.696;6.758;2022-08-19T19:14:12;13.88;;;10.50;;
53273;SDS011;39163;52.696;6.758;2022-08-19T19:16:41;13.77;;;11.25;;
53273;SDS011;39163;52.696;6.758;2022-08-19T19:19:11;19.00;;;11.77;;
53273;SDS011;39163;52.696;6.758;2022-08-19T19:21:43;14.45;;;11.77;;
53273;SDS011;39163;52.696;6.758;2022-08-19T19:24:18;14.13;;;11.70;;
53273;SDS011;39163;52.696;6.758;2022-08-19T19:26:47;19.77;;;11.90;;
53273;SDS011;39163;52.696;6.758;2022-08-19T19:29:16;12.77;;;11.50;;
53273;SDS011;39163;52.696;6.758;2022-08-19T19:31:42;16.13;;;11.90;;
53273;SDS011;39163;52.696;6.758;2022-08-19T19:34:09;11.35;;;10.18;;
53273;SDS011;39163;52.696;6.758;2022-08-19T19:36:36;14.65;;;11.32;;
53273;SDS011;39163;52.696;6.758;2022-08-19T19:39:02;14.18;;;10.55;;
53273;SDS011;39163;52.696;6.758;2022-08-19T19:41:31;12.93;;;10.30;;
53273;SDS011;39163;52.696;6.758;2022-08-19T19:43:59;14.20;;;10.60;;
53273;SDS011;39163;52.696;6.758;2022-08-19T19:46:26;10.63;;;9.35;;
53273;SDS011;39163;52.696;6.758;2022-08-19T19:48:53;11.02;;;9.00;;
53273;SDS011;39163;52.696;6.758;2022-08-19T19:51:19;9.27;;;7.78;;
53273;SDS011;39163;52.696;6.758;2022-08-19T19:53:45;8.43;;;7.53;;
53273;SDS011;39163;52.696;6.758;2022-08-19T19:56:18;9.57;;;8.43;;
53273;SDS011;39163;52.696;6.758;2022-08-19T19:58:46;9.57;;;8.02;;
53273;SDS011;39163;52.696;6.758;2022-08-19T20:01:17;8.65;;;6.82;;
53273;SDS011;39163;52.696;6.758;2022-08-19T20:03:44;7.68;;;5.20;;
53273;SDS011;39163;52.696;6.758;2022-08-19T20:06:11;6.55;;;4.85;;
53273;SDS011;39163;52.696;6.758;2022-08-19T20:08:38;5.35;;;4.60;;
53273;SDS011;39163;52.696;6.758;2022-08-19T20:11:27;4.65;;;4.13;;
53273;SDS011;39163;52.696;6.758;2022-08-19T20:14:19;5.40;;;4.25;;
53273;SDS011;39163;52.696;6.758;2022-08-19T20:16:45;6.35;;;4.15;;
53273;SDS011;39163;52.696;6.758;2022-08-19T20:19:13;6.28;;;4.10;;
53273;SDS011;39163;52.696;6.758;2022-08-19T20:21:41;7.28;;;3.50;;
53273;SDS011;39163;52.696;6.758;2022-08-19T20:24:19;4.40;;;3.50;;
53273;SDS011;39163;52.696;6.758;2022-08-19T20:26:47;5.78;;;3.67;;
53273;SDS011;39163;52.696;6.758;2022-08-19T20:29:14;4.68;;;3.33;;
53273;SDS011;39163;52.696;6.758;2022-08-19T20:31:42;4.30;;;2.95;;
53273;SDS011;39163;52.696;6.758;2022-08-19T20:34:09;4.00;;;3.10;;
53273;SDS011;39163;52.696;6.758;2022-08-19T20:36:35;3.38;;;2.78;;
53273;SDS011;39163;52.696;6.758;2022-08-19T20:39:02;5.07;;;3.45;;
53273;SDS011;39163;52.696;6.758;2022-08-19T20:41:28;5.47;;;3.72;;
53273;SDS011;39163;52.696;6.758;2022-08-19T20:43:54;7.32;;;3.00;;
53273;SDS011;39163;52.696;6.758;2022-08-19T20:46:21;3.75;;;3.30;;
53273;SDS011;39163;52.696;6.758;2022-08-19T20:48:47;6.55;;;3.33;;
53273;SDS011;39163;52.696;6.758;2022-08-19T20:51:12;4.30;;;3.90;;
53273;SDS011;39163;52.696;6.758;2022-08-19T20:53:39;8.38;;;3.88;;
53273;SDS011;39163;52.696;6.758;2022-08-19T20:56:05;5.03;;;3.75;;
53273;SDS011;39163;52.696;6.758;2022-08-19T20:58:32;6.85;;;5.20;;
53273;SDS011;39163;52.696;6.758;2022-08-19T21:00:59;6.88;;;4.57;;
53273;SDS011;39163;52.696;6.758;2022-08-19T21:03:27;7.32;;;6.03;;
53273;SDS011;39163;52.696;6.758;2022-08-19T21:05:54;5.78;;;4.32;;
53273;SDS011;39163;52.696;6.758;2022-08-19T21:08:21;4.57;;;4.18;;
53273;SDS011;39163;52.696;6.758;2022-08-19T21:10:48;4.28;;;3.55;;
53273;SDS011;39163;52.696;6.758;2022-08-19T21:13:15;4.82;;;4.30;;
53273;SDS011;39163;52.696;6.758;2022-08-19T21:15:42;5.72;;;4.20;;
53273;SDS011;39163;52.696;6.758;2022-08-19T21:18:09;5.22;;;4.10;;
53273;SDS011;39163;52.696;6.758;2022-08-19T21:20:36;4.28;;;3.92;;
53273;SDS011;39163;52.696;6.758;2022-08-19T21:23:06;6.68;;;4.90;;
53273;SDS011;39163;52.696;6.758;2022-08-19T21:25:35;5.50;;;4.65;;
53273;SDS011;39163;52.696;6.758;2022-08-19T21:28:01;5.45;;;4.95;;
53273;SDS011;39163;52.696;6.758;2022-08-19T21:30:27;5.55;;;4.93;;
53273;SDS011;39163;52.696;6.758;2022-08-19T21:32:53;5.88;;;5.03;;
53273;SDS011;39163;52.696;6.758;2022-08-19T21:35:20;7.32;;;5.40;;
53273;SDS011;39163;52.696;6.758;2022-08-19T21:37:47;7.10;;;5.68;;
53273;SDS011;39163;52.696;6.758;2022-08-19T21:40:14;8.00;;;5.25;;
53273;SDS011;39163;52.696;6.758;2022-08-19T21:42:40;6.50;;;5.90;;
53273;SDS011;39163;52.696;6.758;2022-08-19T21:45:07;6.82;;;6.13;;
53273;SDS011;39163;52.696;6.758;2022-08-19T21:47:34;7.78;;;5.78;;
53273;SDS011;39163;52.696;6.758;2022-08-19T21:50:01;5.82;;;5.32;;
53273;SDS011;39163;52.696;6.758;2022-08-19T21:52:28;5.97;;;5.38;;
53273;SDS011;39163;52.696;6.758;2022-08-19T21:54:57;6.63;;;5.95;;
53273;SDS011;39163;52.696;6.758;2022-08-19T21:57:33;9.32;;;5.97;;
53273;SDS011;39163;52.696;6.758;2022-08-19T22:00:51;7.78;;;6.07;;
53273;SDS011;39163;52.696;6.758;2022-08-19T22:06:53;7.82;;;6.15;;
53273;SDS011;39163;52.696;6.758;2022-08-19T22:09:24;9.25;;;7.40;;
53273;SDS011;39163;52.696;6.758;2022-08-19T22:11:59;12.00;;;8.25;;
53273;SDS011;39163;52.696;6.758;2022-08-19T22:14:33;13.52;;;8.73;;
53273;SDS011;39163;52.696;6.758;2022-08-19T22:17:00;19.33;;;8.75;;
53273;SDS011;39163;52.696;6.758;2022-08-19T22:19:26;17.67;;;8.95;;
53273;SDS011;39163;52.696;6.758;2022-08-19T22:21:53;24.48;;;10.57;;
53273;SDS011;39163;52.696;6.758;2022-08-19T22:24:20;24.50;;;11.25;;
53273;SDS011;39163;52.696;6.758;2022-08-19T22:26:45;24.88;;;12.02;;
53273;SDS011;39163;52.696;6.758;2022-08-19T22:29:11;19.30;;;12.20;;
53273;SDS011;39163;52.696;6.758;2022-08-19T22:31:37;19.23;;;10.32;;
53273;SDS011;39163;52.696;6.758;2022-08-19T22:34:03;17.95;;;11.90;;
53273;SDS011;39163;52.696;6.758;2022-08-19T22:36:42;15.57;;;10.15;;
53273;SDS011;39163;52.696;6.758;2022-08-19T22:44:21;15.25;;;11.02;;
53273;SDS011;39163;52.696;6.758;2022-08-19T22:46:48;22.92;;;12.73;;
53273;SDS011;39163;52.696;6.758;2022-08-19T22:49:13;23.67;;;12.85;;
53273;SDS011;39163;52.696;6.758;2022-08-19T22:51:39;16.92;;;12.40;;
53273;SDS011;39163;52.696;6.758;2022-08-19T22:54:23;14.73;;;10.48;;
53273;SDS011;39163;52.696;6.758;2022-08-19T22:56:49;14.48;;;10.57;;
53273;SDS011;39163;52.696;6.758;2022-08-19T22:59:16;12.15;;;10.02;;
53273;SDS011;39163;52.696;6.758;2022-08-19T23:01:42;13.40;;;10.43;;
53273;SDS011;39163;52.696;6.758;2022-08-19T23:04:07;14.95;;;10.88;;
53273;SDS011;39163;52.696;6.758;2022-08-19T23:06:34;15.90;;;10.75;;
53273;SDS011;39163;52.696;6.758;2022-08-19T23:09:03;16.95;;;11.15;;
53273;SDS011;39163;52.696;6.758;2022-08-19T23:11:31;17.15;;;10.95;;
53273;SDS011;39163;52.696;6.758;2022-08-19T23:13:59;17.42;;;10.98;;
53273;SDS011;39163;52.696;6.758;2022-08-19T23:16:35;13.05;;;9.75;;
